createdAt,value
2017-12-23T00:01:18.219Z,9.00
2017-12-23T00:03:51.910Z,9.10
2017-12-23T00:06:26.594Z,9.10
2017-12-23T00:09:01.134Z,9.10
2017-12-23T00:11:35.955Z,9.10
2017-12-23T00:14:09.949Z,9.00
2017-12-23T00:16:44.537Z,9.00
2017-12-23T00:19:18.500Z,9.00
2017-12-23T00:21:52.416Z,9.00
2017-12-23T00:24:26.310Z,9.00
2017-12-23T00:27:00.810Z,9.00
2017-12-23T00:29:34.590Z,9.00
2017-12-23T00:32:09.493Z,9.00
2017-12-23T00:34:43.315Z,9.00
2017-12-23T00:37:17.153Z,9.00
2017-12-23T00:39:51.013Z,9.00
2017-12-23T00:42:24.709Z,9.00
2017-12-23T00:45:03.083Z,9.00
2017-12-23T00:47:36.903Z,9.00
2017-12-23T00:50:10.766Z,9.10
2017-12-23T00:52:45.315Z,9.10
2017-12-23T00:55:19.962Z,9.10
2017-12-23T00:57:53.684Z,9.10
2017-12-23T01:00:27.411Z,9.10
2017-12-23T01:03:01.225Z,9.10
2017-12-23T01:05:35.045Z,9.10
2017-12-23T01:08:08.838Z,9.10
2017-12-23T01:10:42.568Z,9.10
2017-12-23T01:13:17.621Z,9.10
2017-12-23T01:15:51.531Z,9.10
2017-12-23T01:18:26.320Z,9.10
2017-12-23T01:20:59.972Z,9.10
2017-12-23T01:23:33.829Z,9.10
2017-12-23T01:26:08.378Z,9.10
2017-12-23T01:28:42.271Z,9.10
2017-12-23T01:31:16.031Z,9.00
2017-12-23T01:33:49.825Z,9.00
2017-12-23T01:36:23.627Z,9.00
2017-12-23T01:38:57.766Z,9.00
2017-12-23T01:41:31.522Z,9.00
2017-12-23T01:44:05.350Z,9.00
2017-12-23T01:46:39.948Z,9.00
2017-12-23T01:49:14.816Z,9.00
2017-12-23T01:51:48.644Z,9.00
2017-12-23T01:54:22.511Z,9.00
2017-12-23T01:56:56.328Z,9.00
2017-12-23T01:59:30.075Z,8.90
2017-12-23T02:02:03.676Z,8.90
2017-12-23T02:04:38.280Z,8.90
2017-12-23T02:07:12.764Z,8.90
2017-12-23T02:09:46.556Z,8.90
2017-12-23T02:12:20.184Z,8.80
2017-12-23T02:14:54.830Z,8.70
2017-12-23T02:17:28.650Z,8.70
2017-12-23T02:20:02.564Z,8.80
2017-12-23T02:22:36.360Z,8.70
2017-12-23T02:25:10.220Z,8.70
2017-12-23T02:27:44.022Z,8.70
2017-12-23T02:30:18.599Z,8.70
2017-12-23T02:32:52.401Z,8.70
2017-12-23T02:35:26.475Z,8.70
2017-12-23T02:38:00.220Z,8.70
2017-12-23T02:40:34.162Z,8.70
2017-12-23T02:43:07.957Z,8.70
2017-12-23T02:45:41.926Z,8.70
2017-12-23T02:48:15.740Z,8.70
2017-12-23T02:50:50.377Z,8.80
2017-12-23T02:53:24.972Z,8.80
2017-12-23T02:55:59.531Z,8.80
2017-12-23T02:58:33.329Z,8.80
2017-12-23T03:01:07.978Z,8.80
2017-12-23T03:03:41.770Z,8.80
2017-12-23T03:06:15.608Z,8.90
2017-12-23T03:08:49.272Z,8.90
2017-12-23T03:11:23.089Z,8.90
2017-12-23T03:13:57.679Z,8.90
2017-12-23T03:16:31.726Z,8.90
2017-12-23T03:19:06.309Z,8.90
2017-12-23T03:21:39.985Z,8.90
2017-12-23T03:24:13.766Z,8.90
2017-12-23T03:26:47.440Z,8.80
2017-12-23T03:29:21.839Z,8.70
2017-12-23T03:31:55.604Z,8.70
2017-12-23T03:34:29.349Z,8.60
2017-12-23T03:37:03.508Z,8.70
2017-12-23T03:39:37.197Z,8.60
2017-12-23T03:42:11.229Z,8.60
2017-12-23T03:44:44.912Z,8.70
2017-12-23T03:47:20.132Z,8.60
2017-12-23T03:49:54.635Z,8.60
2017-12-23T03:52:29.192Z,8.60
2017-12-23T03:55:03.045Z,8.60
2017-12-23T03:57:36.908Z,8.60
2017-12-23T04:00:10.621Z,8.60
2017-12-23T04:02:45.225Z,8.70
2017-12-23T04:05:19.821Z,8.60
2017-12-23T04:07:54.292Z,8.60
2017-12-23T04:10:28.052Z,8.60
2017-12-23T04:13:01.833Z,8.70
2017-12-23T04:15:36.387Z,8.60
2017-12-23T04:18:10.084Z,8.60
2017-12-23T04:20:43.881Z,8.60
2017-12-23T04:23:17.773Z,8.60
2017-12-23T04:25:51.520Z,8.60
2017-12-23T04:28:25.654Z,8.60
2017-12-23T04:30:59.434Z,8.60
2017-12-23T04:33:33.293Z,8.50
2017-12-23T04:36:07.268Z,8.50
2017-12-23T04:38:41.183Z,8.50
2017-12-23T04:41:14.932Z,8.50
2017-12-23T04:43:49.508Z,8.50
2017-12-23T04:46:23.110Z,8.50
2017-12-23T04:48:56.820Z,8.50
2017-12-23T04:51:31.310Z,8.40
2017-12-23T04:54:05.460Z,8.40
2017-12-23T04:56:39.932Z,8.30
2017-12-23T04:59:14.716Z,8.40
2017-12-23T05:01:49.298Z,8.40
2017-12-23T05:04:23.035Z,8.40
2017-12-23T05:06:57.540Z,8.40
2017-12-23T05:09:31.960Z,8.40
2017-12-23T05:12:05.762Z,8.40
2017-12-23T05:14:40.603Z,8.50
2017-12-23T05:17:14.377Z,8.40
2017-12-23T05:19:48.908Z,8.40
2017-12-23T05:22:22.582Z,8.40
2017-12-23T05:24:57.135Z,8.50
2017-12-23T05:27:30.942Z,8.50
2017-12-23T05:30:05.463Z,8.50
2017-12-23T05:32:39.276Z,8.50
2017-12-23T05:35:15.122Z,8.50
2017-12-23T05:37:48.794Z,8.50
2017-12-23T05:40:22.664Z,8.50
2017-12-23T05:42:56.537Z,8.50
2017-12-23T05:45:31.205Z,8.50
2017-12-23T05:48:05.056Z,8.50
2017-12-23T05:50:39.716Z,8.50
2017-12-23T05:53:13.466Z,8.50
2017-12-23T05:55:47.370Z,8.40
2017-12-23T05:58:21.910Z,8.40
2017-12-23T06:00:55.832Z,8.40
2017-12-23T06:03:30.455Z,8.40
2017-12-23T06:06:04.220Z,8.40
2017-12-23T06:08:38.007Z,8.40
2017-12-23T06:11:12.296Z,8.40
2017-12-23T06:13:45.982Z,8.40
2017-12-23T06:16:20.748Z,8.40
2017-12-23T06:18:54.413Z,8.40
2017-12-23T06:21:28.854Z,8.40
2017-12-23T06:24:02.713Z,8.40
2017-12-23T06:26:36.401Z,8.40
2017-12-23T06:29:10.181Z,8.40
2017-12-23T06:31:44.844Z,8.40
2017-12-23T06:34:18.529Z,8.40
2017-12-23T06:36:52.533Z,8.40
2017-12-23T06:39:26.348Z,8.40
2017-12-23T06:42:01.162Z,8.40
2017-12-23T06:44:34.996Z,8.40
2017-12-23T06:47:09.476Z,8.40
2017-12-23T06:49:43.286Z,8.40
2017-12-23T06:52:17.044Z,8.40
2017-12-23T06:54:51.588Z,8.50
2017-12-23T06:57:25.645Z,8.50
2017-12-23T06:59:59.296Z,8.50
2017-12-23T07:02:33.160Z,8.60
2017-12-23T07:05:06.972Z,8.60
2017-12-23T07:07:41.454Z,8.60
2017-12-23T07:10:15.228Z,8.60
2017-12-23T07:12:48.939Z,8.60
2017-12-23T07:15:23.488Z,8.60
2017-12-23T07:17:57.305Z,8.50
2017-12-23T07:20:31.104Z,8.60
2017-12-23T07:23:05.365Z,8.50
2017-12-23T07:25:39.200Z,8.50
2017-12-23T07:28:12.984Z,8.60
2017-12-23T07:30:47.432Z,8.60
2017-12-23T07:33:21.125Z,8.60
2017-12-23T07:35:54.897Z,8.60
2017-12-23T07:38:28.752Z,8.70
2017-12-23T07:41:02.808Z,8.70
2017-12-23T07:43:36.452Z,8.60
2017-12-23T07:46:11.169Z,8.70
2017-12-23T07:48:46.244Z,8.60
2017-12-23T07:51:20.775Z,8.70
2017-12-23T07:53:55.383Z,8.80
2017-12-23T07:56:29.324Z,8.80
2017-12-23T07:59:03.436Z,8.80
2017-12-23T08:01:37.230Z,8.80
2017-12-23T08:04:11.098Z,8.80
2017-12-23T08:06:44.917Z,8.90
2017-12-23T08:09:18.701Z,8.90
2017-12-23T08:11:52.748Z,8.90
2017-12-23T08:14:26.597Z,8.90
2017-12-23T08:17:00.427Z,8.90
2017-12-23T08:19:34.472Z,8.90
2017-12-23T08:22:08.322Z,8.90
2017-12-23T08:24:42.010Z,8.90
2017-12-23T08:27:15.833Z,8.90
2017-12-23T08:29:49.592Z,8.90
2017-12-23T08:32:23.229Z,8.90
2017-12-23T08:34:57.016Z,8.90
2017-12-23T08:37:31.521Z,9.00
2017-12-23T08:40:06.216Z,9.00
2017-12-23T08:42:40.090Z,9.00
2017-12-23T08:45:13.929Z,9.10
2017-12-23T08:47:47.754Z,9.20
2017-12-23T08:50:21.744Z,9.10
2017-12-23T08:52:55.412Z,9.10
2017-12-23T08:55:29.438Z,9.20
2017-12-23T08:58:03.120Z,9.20
2017-12-23T09:00:37.042Z,9.30
2017-12-23T09:03:11.653Z,9.20
2017-12-23T09:05:46.188Z,9.20
2017-12-23T09:08:20.684Z,9.20
2017-12-23T09:10:54.517Z,9.20
2017-12-23T09:13:28.137Z,9.30
2017-12-23T09:16:02.748Z,9.30
2017-12-23T09:18:37.345Z,9.40
2017-12-23T09:21:11.249Z,9.30
2017-12-23T09:23:45.479Z,9.40
2017-12-23T09:26:19.676Z,9.40
2017-12-23T09:28:53.298Z,9.40
2017-12-23T09:31:27.223Z,9.40
2017-12-23T09:34:00.988Z,9.40
2017-12-23T09:36:34.709Z,9.40
2017-12-23T09:39:08.514Z,9.40
2017-12-23T09:41:42.376Z,9.40
2017-12-23T09:44:16.018Z,9.40
2017-12-23T09:46:50.512Z,9.50
2017-12-23T09:49:24.979Z,9.50
2017-12-23T09:51:58.804Z,9.50
2017-12-23T09:54:33.348Z,9.60
2017-12-23T09:57:07.235Z,9.60
2017-12-23T09:59:41.038Z,9.70
2017-12-23T10:02:14.804Z,9.70
2017-12-23T10:04:49.378Z,9.80
2017-12-23T10:07:23.919Z,9.90
2017-12-23T10:09:57.671Z,9.90
2017-12-23T10:12:32.203Z,9.90
2017-12-23T10:15:06.204Z,9.90
2017-12-23T10:17:40.029Z,9.90
2017-12-23T10:20:13.817Z,9.90
2017-12-23T10:22:47.709Z,10.00
2017-12-23T10:25:21.496Z,10.00
2017-12-23T10:27:55.300Z,10.10
2017-12-23T10:30:28.980Z,10.10
2017-12-23T10:33:02.805Z,10.10
2017-12-23T10:35:36.740Z,10.00
2017-12-23T10:38:10.459Z,10.00
2017-12-23T10:40:44.329Z,10.10
2017-12-23T10:43:18.168Z,10.10
2017-12-23T10:45:52.103Z,10.20
2017-12-23T10:48:25.854Z,10.20
2017-12-23T10:50:59.632Z,10.20
2017-12-23T10:53:33.489Z,10.00
2017-12-23T10:56:07.314Z,9.90
2017-12-23T10:58:41.357Z,9.90
2017-12-23T11:01:15.874Z,9.80
2017-12-23T11:03:49.563Z,9.80
2017-12-23T11:06:23.414Z,9.80
2017-12-23T11:08:57.216Z,9.80
2017-12-23T11:11:31.014Z,9.60
2017-12-23T11:14:04.816Z,9.60
2017-12-23T11:16:38.581Z,9.70
2017-12-23T11:19:14.129Z,9.70
2017-12-23T11:21:47.793Z,9.70
2017-12-23T11:24:22.363Z,9.70
2017-12-23T11:26:56.292Z,9.70
2017-12-23T11:29:30.766Z,9.70
2017-12-23T11:32:05.312Z,9.70
2017-12-23T11:34:39.860Z,9.60
2017-12-23T11:37:13.733Z,9.60
2017-12-23T11:39:47.417Z,9.60
2017-12-23T11:42:21.176Z,9.60
2017-12-23T11:44:54.849Z,9.60
2017-12-23T11:47:29.417Z,9.70
2017-12-23T11:50:03.164Z,9.70
2017-12-23T11:52:36.984Z,9.70
2017-12-23T11:55:10.704Z,9.70
2017-12-23T11:57:44.503Z,9.80
2017-12-23T12:00:19.008Z,9.80
2017-12-23T12:02:52.763Z,9.80
2017-12-23T12:05:27.350Z,9.80
2017-12-23T12:08:01.182Z,9.80
2017-12-23T12:10:35.005Z,9.90
2017-12-23T12:13:09.001Z,9.70
2017-12-23T12:15:42.744Z,9.70
2017-12-23T12:18:16.659Z,9.70
2017-12-23T12:20:51.226Z,9.80
2017-12-23T12:23:25.042Z,9.80
2017-12-23T12:25:58.784Z,9.90
2017-12-23T12:28:32.418Z,9.90
2017-12-23T12:31:06.957Z,9.70
2017-12-23T12:33:40.810Z,9.80
2017-12-23T12:36:15.322Z,9.80
2017-12-23T12:38:49.184Z,9.80
2017-12-23T12:41:23.780Z,9.70
2017-12-23T12:43:58.453Z,9.70
2017-12-23T12:46:32.949Z,9.70
2017-12-23T12:49:06.821Z,9.70
2017-12-23T12:51:40.532Z,9.80
2017-12-23T12:54:14.427Z,9.70
2017-12-23T12:56:48.221Z,9.80
2017-12-23T12:59:23.660Z,9.70
2017-12-23T13:01:57.526Z,9.80
2017-12-23T13:04:32.124Z,9.70
2017-12-23T13:07:06.035Z,9.70
2017-12-23T13:09:39.892Z,9.80
2017-12-23T13:12:13.769Z,9.80
2017-12-23T13:14:47.828Z,9.90
2017-12-23T13:17:21.838Z,9.90
2017-12-23T13:19:55.846Z,10.00
2017-12-23T13:22:29.666Z,10.00
2017-12-23T13:25:03.680Z,10.10
2017-12-23T13:27:37.541Z,10.10
2017-12-23T13:30:11.473Z,10.20
2017-12-23T13:32:45.252Z,10.10
2017-12-23T13:35:19.888Z,10.00
2017-12-23T13:37:53.820Z,10.00
2017-12-23T13:40:28.433Z,9.90
2017-12-23T13:43:02.185Z,9.90
2017-12-23T13:45:35.945Z,9.90
2017-12-23T13:48:09.934Z,9.90
2017-12-23T13:50:43.844Z,9.90
2017-12-23T13:53:18.340Z,9.90
2017-12-23T13:55:52.900Z,9.90
2017-12-23T13:58:27.487Z,9.90
2017-12-23T14:01:01.260Z,9.90
2017-12-23T14:03:35.092Z,9.90
2017-12-23T14:06:09.652Z,9.80
2017-12-23T14:08:44.145Z,9.80
2017-12-23T14:11:17.976Z,9.80
2017-12-23T14:13:52.635Z,9.90
2017-12-23T14:16:27.152Z,9.90
2017-12-23T14:19:01.757Z,9.90
2017-12-23T14:21:35.644Z,9.90
2017-12-23T14:24:09.462Z,9.90
2017-12-23T14:26:43.361Z,9.80
2017-12-23T14:29:17.072Z,9.80
2017-12-23T14:31:50.945Z,9.80
2017-12-23T14:34:24.913Z,9.70
2017-12-23T14:36:58.642Z,9.70
2017-12-23T14:39:32.420Z,9.70
2017-12-23T14:42:06.228Z,9.60
2017-12-23T14:44:40.002Z,9.60
2017-12-23T14:47:13.737Z,9.60
2017-12-23T14:49:48.357Z,9.60
2017-12-23T14:52:22.076Z,9.60
2017-12-23T14:54:57.129Z,9.50
2017-12-23T14:57:30.977Z,9.50
2017-12-23T15:00:05.525Z,9.40
2017-12-23T15:02:41.264Z,9.40
2017-12-23T15:05:15.842Z,9.40
2017-12-23T15:07:49.604Z,9.40
2017-12-23T15:10:23.405Z,9.40
2017-12-23T15:12:57.434Z,9.40
2017-12-23T15:15:32.188Z,9.40
2017-12-23T15:18:05.842Z,9.40
2017-12-23T15:20:39.736Z,9.50
2017-12-23T15:23:16.036Z,9.50
2017-12-23T15:25:49.785Z,9.50
2017-12-23T15:28:23.422Z,9.50
2017-12-23T15:30:57.959Z,9.40
2017-12-23T15:33:31.620Z,9.40
2017-12-23T15:36:06.277Z,9.40
2017-12-23T15:38:41.289Z,9.40
2017-12-23T15:41:15.300Z,9.40
2017-12-23T15:43:48.978Z,9.30
2017-12-23T15:46:23.115Z,9.30
2017-12-23T15:48:56.880Z,9.30
2017-12-23T15:51:31.510Z,9.30
2017-12-23T15:54:05.545Z,9.30
2017-12-23T15:56:39.349Z,9.30
2017-12-23T15:59:14.051Z,9.30
2017-12-23T16:01:48.660Z,9.20
2017-12-23T16:04:22.299Z,9.20
2017-12-23T16:06:56.895Z,9.20
2017-12-23T16:09:30.649Z,9.20
2017-12-23T16:12:04.639Z,9.20
2017-12-23T16:14:39.124Z,9.20
2017-12-23T16:17:12.906Z,9.20
2017-12-23T16:19:46.686Z,9.20
2017-12-23T16:22:20.402Z,9.20
2017-12-23T16:24:54.140Z,9.20
2017-12-23T16:27:29.297Z,9.10
2017-12-23T16:30:03.868Z,9.20
2017-12-23T16:32:37.656Z,9.20
2017-12-23T16:35:11.458Z,9.20
2017-12-23T16:37:45.169Z,9.20
2017-12-23T16:40:19.744Z,9.20
2017-12-23T16:42:54.415Z,9.20
2017-12-23T16:45:29.068Z,9.20
2017-12-23T16:48:02.855Z,9.20
2017-12-23T16:50:36.626Z,9.20
2017-12-23T16:53:10.447Z,9.10
2017-12-23T16:55:44.305Z,9.20
2017-12-23T16:58:18.183Z,9.20
2017-12-23T17:00:52.107Z,9.20
2017-12-23T17:03:25.898Z,9.20
2017-12-23T17:05:59.788Z,9.20
2017-12-23T17:08:33.565Z,9.10
2017-12-23T17:11:07.292Z,9.10
2017-12-23T17:13:41.948Z,9.10
2017-12-23T17:16:15.738Z,9.10
2017-12-23T17:18:49.501Z,9.10
2017-12-23T17:21:23.420Z,9.20
2017-12-23T17:23:57.196Z,9.20
2017-12-23T17:26:31.030Z,9.10
2017-12-23T17:29:16.681Z,9.10
2017-12-23T17:31:50.713Z,9.00
2017-12-23T17:34:24.571Z,9.00
2017-12-23T17:36:58.622Z,9.10
2017-12-23T17:39:32.309Z,9.10
2017-12-23T17:42:06.264Z,9.00
2017-12-23T17:44:40.780Z,9.00
2017-12-23T17:47:14.536Z,9.00
2017-12-23T17:49:48.180Z,9.00
2017-12-23T17:52:22.844Z,9.00
2017-12-23T17:54:56.578Z,8.90
2017-12-23T17:57:30.429Z,9.00
2017-12-23T18:00:05.168Z,9.00
2017-12-23T18:02:39.680Z,8.90
2017-12-23T18:05:13.509Z,8.90
2017-12-23T18:07:47.290Z,9.00
2017-12-23T18:10:21.980Z,9.00
2017-12-23T18:12:55.935Z,8.90
2017-12-23T18:15:29.734Z,9.00
2017-12-23T18:18:03.594Z,9.10
2017-12-23T18:20:37.326Z,9.10
2017-12-23T18:23:11.204Z,9.10
2017-12-23T18:25:45.424Z,9.10
2017-12-23T18:28:19.537Z,9.10
2017-12-23T18:30:53.472Z,9.10
2017-12-23T18:33:27.228Z,9.10
2017-12-23T18:36:00.859Z,9.10
2017-12-23T18:38:34.656Z,9.10
2017-12-23T18:41:08.568Z,9.10
2017-12-23T18:43:43.117Z,9.10
2017-12-23T18:46:17.613Z,9.10
2017-12-23T18:48:51.396Z,9.10
2017-12-23T18:51:25.148Z,9.10
2017-12-23T18:53:58.908Z,9.10
2017-12-23T18:56:32.660Z,9.10
2017-12-23T18:59:06.555Z,9.10
2017-12-23T19:01:41.072Z,9.00
2017-12-23T19:04:14.873Z,9.00
2017-12-23T19:06:48.584Z,9.00
2017-12-23T19:09:23.124Z,9.00
2017-12-23T19:11:56.956Z,9.00
2017-12-23T19:14:30.903Z,9.00
2017-12-23T19:17:04.685Z,9.00
2017-12-23T19:19:39.298Z,9.00
2017-12-23T19:22:13.212Z,9.00
2017-12-23T19:24:47.859Z,9.00
2017-12-23T19:27:21.606Z,9.00
2017-12-23T19:29:55.281Z,9.00
2017-12-23T19:32:29.069Z,9.00
2017-12-23T19:35:02.814Z,9.00
2017-12-23T19:37:37.478Z,9.00
2017-12-23T19:40:11.221Z,8.90
2017-12-23T19:42:45.120Z,8.90
2017-12-23T19:45:19.144Z,8.90
2017-12-23T19:47:52.932Z,8.90
2017-12-23T19:50:26.782Z,8.90
2017-12-23T19:53:00.611Z,8.90
2017-12-23T19:55:34.479Z,8.90
2017-12-23T19:58:08.203Z,8.90
2017-12-23T20:00:42.665Z,8.90
2017-12-23T20:03:16.449Z,8.80
2017-12-23T20:05:51.368Z,8.80
2017-12-23T20:08:25.772Z,8.80
2017-12-23T20:11:00.364Z,8.90
2017-12-23T20:13:34.581Z,8.80
2017-12-23T20:16:08.360Z,8.80
2017-12-23T20:18:42.228Z,8.80
2017-12-23T20:21:15.990Z,8.80
2017-12-23T20:23:49.787Z,8.80
2017-12-23T20:26:24.362Z,8.70
2017-12-23T20:28:58.304Z,8.70
2017-12-23T20:31:32.108Z,8.60
2017-12-23T20:34:06.643Z,8.70
2017-12-23T20:36:40.699Z,8.60
2017-12-23T20:39:14.522Z,8.70
2017-12-23T20:41:48.400Z,8.70
2017-12-23T20:44:22.192Z,8.70
2017-12-23T20:46:56.119Z,8.70
2017-12-23T20:49:29.943Z,8.70
2017-12-23T20:52:03.741Z,8.60
2017-12-23T20:54:38.336Z,8.60
2017-12-23T20:57:12.174Z,8.60
2017-12-23T20:59:46.085Z,8.60
2017-12-23T21:02:19.999Z,8.70
2017-12-23T21:04:54.621Z,8.60
2017-12-23T21:07:28.480Z,8.60
2017-12-23T21:10:02.311Z,8.50
2017-12-23T21:12:36.200Z,8.50
2017-12-23T21:15:10.975Z,8.50
2017-12-23T21:17:44.796Z,8.50
2017-12-23T21:20:18.531Z,8.50
2017-12-23T21:22:52.347Z,8.40
2017-12-23T21:25:26.263Z,8.40
2017-12-23T21:28:00.128Z,8.40
2017-12-23T21:30:34.728Z,8.40
2017-12-23T21:33:08.511Z,8.40
2017-12-23T21:35:42.324Z,8.40
2017-12-23T21:38:16.074Z,8.50
2017-12-23T21:40:50.231Z,8.40
2017-12-23T21:43:23.981Z,8.50
2017-12-23T21:45:57.723Z,8.50
2017-12-23T21:48:31.776Z,8.50
2017-12-23T21:51:06.240Z,8.50
2017-12-23T21:53:40.004Z,8.50
2017-12-23T21:56:13.788Z,8.40
2017-12-23T21:58:47.657Z,8.40
2017-12-23T22:01:22.382Z,8.40
2017-12-23T22:03:56.984Z,8.40
2017-12-23T22:06:30.904Z,8.40
2017-12-23T22:09:04.705Z,8.40
2017-12-23T22:11:38.533Z,8.30
2017-12-23T22:14:13.200Z,8.30
2017-12-23T22:16:46.989Z,8.30
2017-12-23T22:19:21.590Z,8.40
2017-12-23T22:21:55.234Z,8.40
2017-12-23T22:24:29.354Z,8.40
2017-12-23T22:27:03.264Z,8.40
2017-12-23T22:29:37.239Z,8.30
2017-12-23T22:32:12.088Z,8.40
2017-12-23T22:34:45.978Z,8.30
2017-12-23T22:37:20.585Z,8.40
2017-12-23T22:39:54.412Z,8.40
2017-12-23T22:42:34.318Z,8.40
2017-12-23T22:45:08.138Z,8.40
2017-12-23T22:47:41.794Z,8.40
2017-12-23T22:50:15.868Z,8.40
2017-12-23T22:52:50.429Z,8.30
2017-12-23T22:55:24.427Z,8.20
2017-12-23T22:57:58.115Z,8.30
2017-12-23T23:00:32.787Z,8.30
2017-12-23T23:03:06.706Z,8.30
2017-12-23T23:05:41.270Z,8.20
2017-12-23T23:08:15.022Z,8.20
2017-12-23T23:10:48.958Z,8.20
2017-12-23T23:13:23.542Z,8.10
2017-12-23T23:15:57.479Z,8.10
2017-12-23T23:18:31.197Z,8.20
2017-12-23T23:21:05.823Z,8.20
2017-12-23T23:23:39.719Z,8.10
2017-12-23T23:26:13.884Z,8.20
2017-12-23T23:28:48.822Z,8.20
2017-12-23T23:31:22.839Z,8.20
2017-12-23T23:33:57.451Z,8.10
2017-12-23T23:36:31.300Z,8.10
2017-12-23T23:39:05.177Z,8.10
2017-12-23T23:41:38.900Z,8.10
2017-12-23T23:44:12.836Z,8.10
2017-12-23T23:46:46.651Z,8.10
2017-12-23T23:49:20.387Z,8.10
2017-12-23T23:51:54.166Z,8.10
2017-12-23T23:54:27.894Z,8.20
2017-12-23T23:57:01.620Z,8.10
2017-12-23T23:59:35.402Z,8.10
